sensor_id;sensor_type;location;lat;lon;timestamp;P1;durP1;ratioP1;P2;durP2;ratioP2
39140;SDS011;24875;48.436;10.298;2022-08-19T00:00:43;17.52;;;9.18;;
39140;SDS011;24875;48.436;10.298;2022-08-19T00:03:09;18.25;;;10.05;;
39140;SDS011;24875;48.436;10.298;2022-08-19T00:05:36;21.80;;;10.13;;
39140;SDS011;24875;48.436;10.298;2022-08-19T00:08:04;19.00;;;10.02;;
39140;SDS011;24875;48.436;10.298;2022-08-19T00:10:30;23.13;;;11.07;;
39140;SDS011;24875;48.436;10.298;2022-08-19T00:12:57;20.50;;;10.00;;
39140;SDS011;24875;48.436;10.298;2022-08-19T00:15:23;21.45;;;11.15;;
39140;SDS011;24875;48.436;10.298;2022-08-19T00:17:50;25.30;;;13.60;;
39140;SDS011;24875;48.436;10.298;2022-08-19T00:20:18;21.27;;;11.88;;
39140;SDS011;24875;48.436;10.298;2022-08-19T00:22:46;26.15;;;12.60;;
39140;SDS011;24875;48.436;10.298;2022-08-19T00:25:15;25.05;;;13.63;;
39140;SDS011;24875;48.436;10.298;2022-08-19T00:27:43;26.45;;;14.30;;
39140;SDS011;24875;48.436;10.298;2022-08-19T00:30:10;28.70;;;14.27;;
39140;SDS011;24875;48.436;10.298;2022-08-19T00:32:37;27.75;;;13.93;;
39140;SDS011;24875;48.436;10.298;2022-08-19T00:35:05;26.70;;;14.95;;
39140;SDS011;24875;48.436;10.298;2022-08-19T00:37:32;33.15;;;14.82;;
39140;SDS011;24875;48.436;10.298;2022-08-19T00:39:59;32.05;;;15.88;;
39140;SDS011;24875;48.436;10.298;2022-08-19T00:42:29;25.27;;;13.82;;
39140;SDS011;24875;48.436;10.298;2022-08-19T00:44:55;32.85;;;16.88;;
39140;SDS011;24875;48.436;10.298;2022-08-19T00:47:22;29.63;;;14.75;;
39140;SDS011;24875;48.436;10.298;2022-08-19T00:49:49;33.55;;;15.50;;
39140;SDS011;24875;48.436;10.298;2022-08-19T00:52:20;32.10;;;15.95;;
39140;SDS011;24875;48.436;10.298;2022-08-19T00:54:49;32.50;;;16.48;;
39140;SDS011;24875;48.436;10.298;2022-08-19T00:57:18;30.45;;;14.77;;
39140;SDS011;24875;48.436;10.298;2022-08-19T00:59:54;30.05;;;14.93;;
39140;SDS011;24875;48.436;10.298;2022-08-19T01:02:22;26.20;;;12.27;;
39140;SDS011;24875;48.436;10.298;2022-08-19T01:04:49;23.70;;;12.57;;
39140;SDS011;24875;48.436;10.298;2022-08-19T01:07:16;30.50;;;14.45;;
39140;SDS011;24875;48.436;10.298;2022-08-19T01:09:43;33.42;;;15.93;;
39140;SDS011;24875;48.436;10.298;2022-08-19T01:12:10;33.72;;;16.17;;
39140;SDS011;24875;48.436;10.298;2022-08-19T01:14:37;37.83;;;17.83;;
39140;SDS011;24875;48.436;10.298;2022-08-19T01:17:07;34.13;;;17.00;;
39140;SDS011;24875;48.436;10.298;2022-08-19T01:19:35;32.90;;;17.77;;
39140;SDS011;24875;48.436;10.298;2022-08-19T01:22:06;33.47;;;17.73;;
39140;SDS011;24875;48.436;10.298;2022-08-19T01:24:38;31.70;;;16.33;;
39140;SDS011;24875;48.436;10.298;2022-08-19T01:27:06;38.70;;;17.60;;
39140;SDS011;24875;48.436;10.298;2022-08-19T01:29:34;33.97;;;17.10;;
39140;SDS011;24875;48.436;10.298;2022-08-19T01:32:05;35.40;;;17.75;;
39140;SDS011;24875;48.436;10.298;2022-08-19T01:34:33;33.53;;;16.95;;
39140;SDS011;24875;48.436;10.298;2022-08-19T01:37:00;32.88;;;16.98;;
39140;SDS011;24875;48.436;10.298;2022-08-19T01:39:35;36.03;;;17.25;;
39140;SDS011;24875;48.436;10.298;2022-08-19T01:42:04;31.45;;;16.83;;
39140;SDS011;24875;48.436;10.298;2022-08-19T01:44:32;35.00;;;17.05;;
39140;SDS011;24875;48.436;10.298;2022-08-19T01:47:01;33.60;;;17.25;;
39140;SDS011;24875;48.436;10.298;2022-08-19T01:49:28;37.42;;;18.10;;
39140;SDS011;24875;48.436;10.298;2022-08-19T01:51:55;32.35;;;17.70;;
39140;SDS011;24875;48.436;10.298;2022-08-19T01:54:23;35.33;;;18.48;;
39140;SDS011;24875;48.436;10.298;2022-08-19T01:56:50;37.38;;;18.10;;
39140;SDS011;24875;48.436;10.298;2022-08-19T01:59:21;35.97;;;18.30;;
39140;SDS011;24875;48.436;10.298;2022-08-19T02:01:50;31.63;;;17.05;;
39140;SDS011;24875;48.436;10.298;2022-08-19T02:04:16;36.45;;;18.90;;
39140;SDS011;24875;48.436;10.298;2022-08-19T02:06:43;39.83;;;18.73;;
39140;SDS011;24875;48.436;10.298;2022-08-19T02:09:09;35.17;;;18.35;;
39140;SDS011;24875;48.436;10.298;2022-08-19T02:11:36;33.55;;;17.98;;
39140;SDS011;24875;48.436;10.298;2022-08-19T02:14:03;36.47;;;17.08;;
39140;SDS011;24875;48.436;10.298;2022-08-19T02:16:33;35.47;;;18.13;;
39140;SDS011;24875;48.436;10.298;2022-08-19T02:19:01;33.45;;;18.40;;
39140;SDS011;24875;48.436;10.298;2022-08-19T02:21:28;36.60;;;17.88;;
39140;SDS011;24875;48.436;10.298;2022-08-19T02:23:56;34.85;;;17.42;;
39140;SDS011;24875;48.436;10.298;2022-08-19T02:26:22;36.35;;;17.63;;
39140;SDS011;24875;48.436;10.298;2022-08-19T02:28:51;35.25;;;17.20;;
39140;SDS011;24875;48.436;10.298;2022-08-19T02:31:20;38.90;;;19.05;;
39140;SDS011;24875;48.436;10.298;2022-08-19T02:33:49;37.80;;;18.38;;
39140;SDS011;24875;48.436;10.298;2022-08-19T02:36:17;39.58;;;19.00;;
39140;SDS011;24875;48.436;10.298;2022-08-19T02:38:44;37.97;;;18.38;;
39140;SDS011;24875;48.436;10.298;2022-08-19T02:41:11;41.30;;;19.15;;
39140;SDS011;24875;48.436;10.298;2022-08-19T02:43:40;41.63;;;19.40;;
39140;SDS011;24875;48.436;10.298;2022-08-19T02:46:11;41.20;;;19.90;;
39140;SDS011;24875;48.436;10.298;2022-08-19T02:48:38;41.97;;;20.65;;
39140;SDS011;24875;48.436;10.298;2022-08-19T02:51:06;41.20;;;19.85;;
39140;SDS011;24875;48.436;10.298;2022-08-19T02:53:33;47.65;;;21.60;;
39140;SDS011;24875;48.436;10.298;2022-08-19T02:55:59;43.88;;;21.65;;
39140;SDS011;24875;48.436;10.298;2022-08-19T02:58:26;45.25;;;20.73;;
39140;SDS011;24875;48.436;10.298;2022-08-19T03:00:54;42.75;;;20.13;;
39140;SDS011;24875;48.436;10.298;2022-08-19T03:03:21;38.72;;;19.17;;
39140;SDS011;24875;48.436;10.298;2022-08-19T03:05:48;41.42;;;19.63;;
39140;SDS011;24875;48.436;10.298;2022-08-19T03:08:16;43.17;;;19.95;;
39140;SDS011;24875;48.436;10.298;2022-08-19T03:10:43;38.38;;;20.23;;
39140;SDS011;24875;48.436;10.298;2022-08-19T03:13:12;37.75;;;18.75;;
39140;SDS011;24875;48.436;10.298;2022-08-19T03:15:40;41.30;;;19.13;;
39140;SDS011;24875;48.436;10.298;2022-08-19T03:18:07;40.22;;;19.63;;
39140;SDS011;24875;48.436;10.298;2022-08-19T03:20:39;39.75;;;19.60;;
39140;SDS011;24875;48.436;10.298;2022-08-19T03:23:07;38.60;;;19.38;;
39140;SDS011;24875;48.436;10.298;2022-08-19T03:25:37;46.72;;;20.45;;
39140;SDS011;24875;48.436;10.298;2022-08-19T03:28:05;36.58;;;19.67;;
39140;SDS011;24875;48.436;10.298;2022-08-19T03:30:32;40.88;;;19.02;;
39140;SDS011;24875;48.436;10.298;2022-08-19T03:32:59;46.38;;;21.05;;
39140;SDS011;24875;48.436;10.298;2022-08-19T03:35:26;40.33;;;18.33;;
39140;SDS011;24875;48.436;10.298;2022-08-19T03:37:53;38.40;;;19.40;;
39140;SDS011;24875;48.436;10.298;2022-08-19T03:40:21;40.85;;;19.33;;
39140;SDS011;24875;48.436;10.298;2022-08-19T03:42:49;40.60;;;19.25;;
39140;SDS011;24875;48.436;10.298;2022-08-19T03:45:15;36.83;;;18.73;;
39140;SDS011;24875;48.436;10.298;2022-08-19T03:47:43;39.58;;;19.38;;
39140;SDS011;24875;48.436;10.298;2022-08-19T03:50:10;41.65;;;20.20;;
39140;SDS011;24875;48.436;10.298;2022-08-19T03:52:36;38.10;;;19.42;;
39140;SDS011;24875;48.436;10.298;2022-08-19T03:55:04;41.90;;;19.33;;
39140;SDS011;24875;48.436;10.298;2022-08-19T03:57:32;40.72;;;19.90;;
39140;SDS011;24875;48.436;10.298;2022-08-19T04:00:00;41.00;;;19.83;;
39140;SDS011;24875;48.436;10.298;2022-08-19T04:02:29;43.35;;;20.60;;
39140;SDS011;24875;48.436;10.298;2022-08-19T04:04:56;38.38;;;18.60;;
39140;SDS011;24875;48.436;10.298;2022-08-19T04:07:22;39.88;;;20.00;;
39140;SDS011;24875;48.436;10.298;2022-08-19T04:09:49;41.72;;;19.95;;
39140;SDS011;24875;48.436;10.298;2022-08-19T04:12:17;41.30;;;20.75;;
39140;SDS011;24875;48.436;10.298;2022-08-19T04:14:45;41.42;;;19.15;;
39140;SDS011;24875;48.436;10.298;2022-08-19T04:17:13;40.35;;;19.55;;
39140;SDS011;24875;48.436;10.298;2022-08-19T04:19:40;43.55;;;20.23;;
39140;SDS011;24875;48.436;10.298;2022-08-19T04:22:07;39.25;;;19.95;;
39140;SDS011;24875;48.436;10.298;2022-08-19T04:24:36;44.08;;;20.95;;
39140;SDS011;24875;48.436;10.298;2022-08-19T04:27:03;43.22;;;20.45;;
39140;SDS011;24875;48.436;10.298;2022-08-19T04:29:31;41.88;;;19.98;;
39140;SDS011;24875;48.436;10.298;2022-08-19T04:31:57;44.25;;;20.83;;
39140;SDS011;24875;48.436;10.298;2022-08-19T04:34:27;43.90;;;20.80;;
39140;SDS011;24875;48.436;10.298;2022-08-19T04:36:55;41.95;;;20.38;;
39140;SDS011;24875;48.436;10.298;2022-08-19T04:39:24;42.92;;;20.90;;
39140;SDS011;24875;48.436;10.298;2022-08-19T04:42:14;44.10;;;20.70;;
39140;SDS011;24875;48.436;10.298;2022-08-19T04:44:59;42.60;;;19.67;;
39140;SDS011;24875;48.436;10.298;2022-08-19T04:47:27;40.40;;;19.77;;
39140;SDS011;24875;48.436;10.298;2022-08-19T04:49:58;42.72;;;20.13;;
39140;SDS011;24875;48.436;10.298;2022-08-19T04:52:25;41.08;;;19.50;;
39140;SDS011;24875;48.436;10.298;2022-08-19T04:54:51;42.75;;;20.13;;
39140;SDS011;24875;48.436;10.298;2022-08-19T04:57:18;43.60;;;20.38;;
39140;SDS011;24875;48.436;10.298;2022-08-19T04:59:44;42.92;;;20.02;;
39140;SDS011;24875;48.436;10.298;2022-08-19T05:02:11;46.55;;;20.20;;
39140;SDS011;24875;48.436;10.298;2022-08-19T05:04:37;45.97;;;21.08;;
39140;SDS011;24875;48.436;10.298;2022-08-19T05:07:06;45.92;;;21.35;;
39140;SDS011;24875;48.436;10.298;2022-08-19T05:09:33;41.70;;;20.23;;
39140;SDS011;24875;48.436;10.298;2022-08-19T05:12:00;46.22;;;20.30;;
39140;SDS011;24875;48.436;10.298;2022-08-19T05:14:26;42.33;;;20.00;;
39140;SDS011;24875;48.436;10.298;2022-08-19T05:16:54;46.08;;;21.15;;
39140;SDS011;24875;48.436;10.298;2022-08-19T05:19:20;44.78;;;20.35;;
39140;SDS011;24875;48.436;10.298;2022-08-19T05:22:06;48.53;;;21.05;;
39140;SDS011;24875;48.436;10.298;2022-08-19T05:24:49;44.10;;;21.23;;
39140;SDS011;24875;48.436;10.298;2022-08-19T05:27:15;43.75;;;20.88;;
39140;SDS011;24875;48.436;10.298;2022-08-19T05:29:42;45.28;;;20.05;;
39140;SDS011;24875;48.436;10.298;2022-08-19T05:32:08;40.33;;;19.73;;
39140;SDS011;24875;48.436;10.298;2022-08-19T05:34:35;42.90;;;20.73;;
39140;SDS011;24875;48.436;10.298;2022-08-19T05:37:03;48.00;;;20.35;;
39140;SDS011;24875;48.436;10.298;2022-08-19T05:39:32;43.58;;;20.63;;
39140;SDS011;24875;48.436;10.298;2022-08-19T05:42:01;45.08;;;21.52;;
39140;SDS011;24875;48.436;10.298;2022-08-19T05:44:31;41.58;;;19.73;;
39140;SDS011;24875;48.436;10.298;2022-08-19T05:46:59;44.92;;;20.73;;
39140;SDS011;24875;48.436;10.298;2022-08-19T05:49:27;42.30;;;20.02;;
39140;SDS011;24875;48.436;10.298;2022-08-19T05:51:54;40.78;;;20.17;;
39140;SDS011;24875;48.436;10.298;2022-08-19T05:54:21;46.28;;;20.95;;
39140;SDS011;24875;48.436;10.298;2022-08-19T05:56:51;42.30;;;19.40;;
39140;SDS011;24875;48.436;10.298;2022-08-19T05:59:18;47.58;;;21.38;;
39140;SDS011;24875;48.436;10.298;2022-08-19T06:01:46;39.33;;;19.38;;
39140;SDS011;24875;48.436;10.298;2022-08-19T06:04:15;42.60;;;19.90;;
39140;SDS011;24875;48.436;10.298;2022-08-19T06:06:43;40.95;;;19.55;;
39140;SDS011;24875;48.436;10.298;2022-08-19T06:09:11;43.75;;;19.50;;
39140;SDS011;24875;48.436;10.298;2022-08-19T06:11:38;41.95;;;19.33;;
39140;SDS011;24875;48.436;10.298;2022-08-19T06:14:11;38.50;;;18.27;;
39140;SDS011;24875;48.436;10.298;2022-08-19T06:16:40;41.45;;;18.33;;
39140;SDS011;24875;48.436;10.298;2022-08-19T06:19:08;42.95;;;18.67;;
39140;SDS011;24875;48.436;10.298;2022-08-19T06:21:37;43.05;;;19.15;;
39140;SDS011;24875;48.436;10.298;2022-08-19T06:24:06;43.78;;;19.20;;
39140;SDS011;24875;48.436;10.298;2022-08-19T06:26:35;45.40;;;20.02;;
39140;SDS011;24875;48.436;10.298;2022-08-19T06:29:02;44.70;;;19.85;;
39140;SDS011;24875;48.436;10.298;2022-08-19T06:31:32;43.53;;;17.10;;
39140;SDS011;24875;48.436;10.298;2022-08-19T06:34:01;44.20;;;18.13;;
39140;SDS011;24875;48.436;10.298;2022-08-19T06:36:33;37.53;;;15.77;;
39140;SDS011;24875;48.436;10.298;2022-08-19T06:39:03;42.83;;;17.65;;
39140;SDS011;24875;48.436;10.298;2022-08-19T06:41:34;41.72;;;17.63;;
39140;SDS011;24875;48.436;10.298;2022-08-19T06:44:01;40.40;;;17.95;;
39140;SDS011;24875;48.436;10.298;2022-08-19T06:46:28;42.28;;;18.50;;
39140;SDS011;24875;48.436;10.298;2022-08-19T06:48:57;40.88;;;17.45;;
39140;SDS011;24875;48.436;10.298;2022-08-19T06:51:24;45.85;;;19.33;;
39140;SDS011;24875;48.436;10.298;2022-08-19T06:53:51;43.88;;;18.17;;
39140;SDS011;24875;48.436;10.298;2022-08-19T06:56:22;40.50;;;17.52;;
39140;SDS011;24875;48.436;10.298;2022-08-19T06:58:55;42.05;;;18.13;;
39140;SDS011;24875;48.436;10.298;2022-08-19T07:01:22;46.65;;;19.48;;
39140;SDS011;24875;48.436;10.298;2022-08-19T07:03:48;45.85;;;19.30;;
39140;SDS011;24875;48.436;10.298;2022-08-19T07:06:16;45.60;;;18.48;;
39140;SDS011;24875;48.436;10.298;2022-08-19T07:08:45;45.38;;;17.20;;
39140;SDS011;24875;48.436;10.298;2022-08-19T07:11:14;41.42;;;17.38;;
39140;SDS011;24875;48.436;10.298;2022-08-19T07:13:43;41.00;;;18.25;;
39140;SDS011;24875;48.436;10.298;2022-08-19T07:16:11;40.10;;;17.70;;
39140;SDS011;24875;48.436;10.298;2022-08-19T07:18:40;34.83;;;15.13;;
39140;SDS011;24875;48.436;10.298;2022-08-19T07:21:07;38.15;;;15.65;;
39140;SDS011;24875;48.436;10.298;2022-08-19T07:23:37;38.90;;;16.40;;
39140;SDS011;24875;48.436;10.298;2022-08-19T07:26:05;31.80;;;14.38;;
39140;SDS011;24875;48.436;10.298;2022-08-19T07:28:33;38.08;;;15.95;;
39140;SDS011;24875;48.436;10.298;2022-08-19T07:31:04;32.05;;;14.13;;
39140;SDS011;24875;48.436;10.298;2022-08-19T07:33:31;32.28;;;15.05;;
39140;SDS011;24875;48.436;10.298;2022-08-19T07:35:58;31.95;;;15.10;;
39140;SDS011;24875;48.436;10.298;2022-08-19T07:38:25;30.77;;;14.57;;
39140;SDS011;24875;48.436;10.298;2022-08-19T07:40:52;32.83;;;14.57;;
39140;SDS011;24875;48.436;10.298;2022-08-19T07:43:19;24.05;;;10.73;;
39140;SDS011;24875;48.436;10.298;2022-08-19T07:45:48;24.52;;;11.50;;
39140;SDS011;24875;48.436;10.298;2022-08-19T07:48:14;23.80;;;11.02;;
39140;SDS011;24875;48.436;10.298;2022-08-19T07:50:41;23.10;;;10.63;;
39140;SDS011;24875;48.436;10.298;2022-08-19T07:53:07;23.98;;;9.63;;
39140;SDS011;24875;48.436;10.298;2022-08-19T07:55:34;17.95;;;8.82;;
39140;SDS011;24875;48.436;10.298;2022-08-19T07:58:02;20.40;;;8.65;;
39140;SDS011;24875;48.436;10.298;2022-08-19T08:00:29;19.92;;;9.02;;
39140;SDS011;24875;48.436;10.298;2022-08-19T08:02:56;16.13;;;8.73;;
39140;SDS011;24875;48.436;10.298;2022-08-19T08:05:23;17.08;;;8.27;;
39140;SDS011;24875;48.436;10.298;2022-08-19T08:08:07;17.45;;;8.13;;
39140;SDS011;24875;48.436;10.298;2022-08-19T08:10:51;16.52;;;8.73;;
39140;SDS011;24875;48.436;10.298;2022-08-19T08:13:19;18.63;;;8.88;;
39140;SDS011;24875;48.436;10.298;2022-08-19T08:15:46;18.90;;;9.40;;
39140;SDS011;24875;48.436;10.298;2022-08-19T08:18:12;17.77;;;9.50;;
39140;SDS011;24875;48.436;10.298;2022-08-19T08:20:39;21.27;;;9.75;;
39140;SDS011;24875;48.436;10.298;2022-08-19T08:23:05;19.17;;;9.05;;
39140;SDS011;24875;48.436;10.298;2022-08-19T08:25:51;16.73;;;8.13;;
39140;SDS011;24875;48.436;10.298;2022-08-19T08:28:20;19.67;;;9.05;;
39140;SDS011;24875;48.436;10.298;2022-08-19T08:30:48;19.40;;;9.88;;
39140;SDS011;24875;48.436;10.298;2022-08-19T08:33:16;24.75;;;10.50;;
39140;SDS011;24875;48.436;10.298;2022-08-19T08:35:44;23.58;;;10.63;;
39140;SDS011;24875;48.436;10.298;2022-08-19T08:38:11;23.92;;;10.93;;
39140;SDS011;24875;48.436;10.298;2022-08-19T08:40:39;29.38;;;12.40;;
39140;SDS011;24875;48.436;10.298;2022-08-19T08:43:13;29.13;;;12.13;;
39140;SDS011;24875;48.436;10.298;2022-08-19T08:45:50;28.95;;;12.80;;
39140;SDS011;24875;48.436;10.298;2022-08-19T08:48:23;29.73;;;13.35;;
39140;SDS011;24875;48.436;10.298;2022-08-19T08:50:57;28.38;;;12.55;;
39140;SDS011;24875;48.436;10.298;2022-08-19T08:53:27;31.20;;;13.32;;
39140;SDS011;24875;48.436;10.298;2022-08-19T08:55:54;30.23;;;13.63;;
39140;SDS011;24875;48.436;10.298;2022-08-19T08:58:24;26.80;;;12.27;;
39140;SDS011;24875;48.436;10.298;2022-08-19T09:00:57;24.10;;;12.27;;
39140;SDS011;24875;48.436;10.298;2022-08-19T09:03:25;26.98;;;12.52;;
39140;SDS011;24875;48.436;10.298;2022-08-19T09:05:56;30.90;;;13.25;;
39140;SDS011;24875;48.436;10.298;2022-08-19T09:08:29;28.10;;;13.38;;
39140;SDS011;24875;48.436;10.298;2022-08-19T09:11:04;28.77;;;14.05;;
39140;SDS011;24875;48.436;10.298;2022-08-19T09:13:34;34.00;;;14.38;;
39140;SDS011;24875;48.436;10.298;2022-08-19T09:16:10;39.17;;;14.70;;
39140;SDS011;24875;48.436;10.298;2022-08-19T09:18:39;36.35;;;15.07;;
39140;SDS011;24875;48.436;10.298;2022-08-19T09:21:09;39.92;;;16.30;;
39140;SDS011;24875;48.436;10.298;2022-08-19T09:23:36;37.33;;;15.88;;
39140;SDS011;24875;48.436;10.298;2022-08-19T09:26:06;42.25;;;16.70;;
39140;SDS011;24875;48.436;10.298;2022-08-19T09:28:33;42.88;;;16.75;;
39140;SDS011;24875;48.436;10.298;2022-08-19T09:31:01;39.33;;;16.70;;
39140;SDS011;24875;48.436;10.298;2022-08-19T09:33:29;42.97;;;16.90;;
39140;SDS011;24875;48.436;10.298;2022-08-19T09:36:05;42.92;;;17.40;;
39140;SDS011;24875;48.436;10.298;2022-08-19T09:38:34;42.00;;;17.00;;
39140;SDS011;24875;48.436;10.298;2022-08-19T09:41:04;40.70;;;17.98;;
39140;SDS011;24875;48.436;10.298;2022-08-19T09:43:31;47.80;;;18.65;;
39140;SDS011;24875;48.436;10.298;2022-08-19T09:45:58;42.40;;;18.48;;
39140;SDS011;24875;48.436;10.298;2022-08-19T09:48:25;44.47;;;18.90;;
39140;SDS011;24875;48.436;10.298;2022-08-19T09:50:53;45.08;;;19.23;;
39140;SDS011;24875;48.436;10.298;2022-08-19T09:53:20;44.30;;;18.00;;
39140;SDS011;24875;48.436;10.298;2022-08-19T09:55:48;46.10;;;19.25;;
39140;SDS011;24875;48.436;10.298;2022-08-19T09:58:15;42.50;;;18.67;;
39140;SDS011;24875;48.436;10.298;2022-08-19T10:00:41;44.78;;;19.00;;
39140;SDS011;24875;48.436;10.298;2022-08-19T10:03:08;45.45;;;19.70;;
39140;SDS011;24875;48.436;10.298;2022-08-19T10:05:35;41.78;;;19.83;;
39140;SDS011;24875;48.436;10.298;2022-08-19T10:08:16;41.55;;;18.25;;
39140;SDS011;24875;48.436;10.298;2022-08-19T10:10:45;45.10;;;19.70;;
39140;SDS011;24875;48.436;10.298;2022-08-19T10:13:13;40.13;;;19.05;;
39140;SDS011;24875;48.436;10.298;2022-08-19T10:15:41;40.60;;;19.55;;
39140;SDS011;24875;48.436;10.298;2022-08-19T10:18:08;43.35;;;18.63;;
39140;SDS011;24875;48.436;10.298;2022-08-19T10:20:35;48.08;;;20.45;;
39140;SDS011;24875;48.436;10.298;2022-08-19T10:23:02;53.50;;;21.30;;
39140;SDS011;24875;48.436;10.298;2022-08-19T10:25:30;47.63;;;20.23;;
39140;SDS011;24875;48.436;10.298;2022-08-19T10:27:59;41.40;;;19.20;;
39140;SDS011;24875;48.436;10.298;2022-08-19T10:30:25;44.70;;;19.98;;
39140;SDS011;24875;48.436;10.298;2022-08-19T10:32:52;47.30;;;20.35;;
39140;SDS011;24875;48.436;10.298;2022-08-19T10:35:19;44.92;;;20.30;;
39140;SDS011;24875;48.436;10.298;2022-08-19T10:37:45;48.05;;;18.83;;
39140;SDS011;24875;48.436;10.298;2022-08-19T10:40:12;54.42;;;21.27;;
39140;SDS011;24875;48.436;10.298;2022-08-19T10:42:40;49.80;;;22.10;;
39140;SDS011;24875;48.436;10.298;2022-08-19T10:45:07;47.72;;;21.13;;
39140;SDS011;24875;48.436;10.298;2022-08-19T10:47:34;54.42;;;22.20;;
39140;SDS011;24875;48.436;10.298;2022-08-19T10:50:01;50.47;;;21.95;;
39140;SDS011;24875;48.436;10.298;2022-08-19T10:52:47;44.60;;;21.33;;
39140;SDS011;24875;48.436;10.298;2022-08-19T10:55:15;51.13;;;21.95;;
39140;SDS011;24875;48.436;10.298;2022-08-19T10:58:02;50.30;;;19.52;;
39140;SDS011;24875;48.436;10.298;2022-08-19T11:00:29;52.25;;;23.15;;
39140;SDS011;24875;48.436;10.298;2022-08-19T11:02:55;55.92;;;22.70;;
39140;SDS011;24875;48.436;10.298;2022-08-19T11:05:22;55.15;;;22.10;;
39140;SDS011;24875;48.436;10.298;2022-08-19T11:07:48;47.03;;;20.50;;
39140;SDS011;24875;48.436;10.298;2022-08-19T11:10:16;54.92;;;22.77;;
39140;SDS011;24875;48.436;10.298;2022-08-19T11:12:44;50.60;;;21.65;;
39140;SDS011;24875;48.436;10.298;2022-08-19T11:15:13;44.72;;;19.80;;
39140;SDS011;24875;48.436;10.298;2022-08-19T11:17:39;44.65;;;20.02;;
39140;SDS011;24875;48.436;10.298;2022-08-19T11:20:08;44.95;;;19.13;;
39140;SDS011;24875;48.436;10.298;2022-08-19T11:22:35;43.17;;;20.58;;
39140;SDS011;24875;48.436;10.298;2022-08-19T11:25:02;48.92;;;19.80;;
39140;SDS011;24875;48.436;10.298;2022-08-19T11:27:29;50.30;;;21.00;;
39140;SDS011;24875;48.436;10.298;2022-08-19T11:29:56;51.30;;;21.13;;
39140;SDS011;24875;48.436;10.298;2022-08-19T11:32:24;48.55;;;20.35;;
39140;SDS011;24875;48.436;10.298;2022-08-19T11:34:50;46.70;;;20.92;;
39140;SDS011;24875;48.436;10.298;2022-08-19T11:37:17;47.08;;;21.15;;
39140;SDS011;24875;48.436;10.298;2022-08-19T11:39:43;48.75;;;20.05;;
39140;SDS011;24875;48.436;10.298;2022-08-19T11:42:10;44.83;;;19.95;;
39140;SDS011;24875;48.436;10.298;2022-08-19T11:44:54;46.50;;;20.25;;
39140;SDS011;24875;48.436;10.298;2022-08-19T11:47:21;51.65;;;19.00;;
39140;SDS011;24875;48.436;10.298;2022-08-19T11:49:49;43.03;;;18.77;;
39140;SDS011;24875;48.436;10.298;2022-08-19T11:52:16;52.20;;;20.40;;
39140;SDS011;24875;48.436;10.298;2022-08-19T11:54:42;49.72;;;21.85;;
39140;SDS011;24875;48.436;10.298;2022-08-19T11:57:09;49.90;;;21.52;;
39140;SDS011;24875;48.436;10.298;2022-08-19T11:59:36;47.17;;;19.98;;
39140;SDS011;24875;48.436;10.298;2022-08-19T12:02:02;53.15;;;22.10;;
39140;SDS011;24875;48.436;10.298;2022-08-19T12:04:29;54.45;;;21.73;;
39140;SDS011;24875;48.436;10.298;2022-08-19T12:06:57;46.92;;;19.42;;
39140;SDS011;24875;48.436;10.298;2022-08-19T12:09:23;46.72;;;21.70;;
39140;SDS011;24875;48.436;10.298;2022-08-19T12:11:50;48.30;;;20.35;;
39140;SDS011;24875;48.436;10.298;2022-08-19T12:14:16;52.25;;;22.20;;
39140;SDS011;24875;48.436;10.298;2022-08-19T12:16:44;50.78;;;22.25;;
39140;SDS011;24875;48.436;10.298;2022-08-19T12:19:11;50.90;;;21.98;;
39140;SDS011;24875;48.436;10.298;2022-08-19T12:21:38;52.58;;;22.60;;
39140;SDS011;24875;48.436;10.298;2022-08-19T12:24:06;48.65;;;22.33;;
39140;SDS011;24875;48.436;10.298;2022-08-19T12:26:33;52.20;;;21.95;;
39140;SDS011;24875;48.436;10.298;2022-08-19T12:29:00;45.67;;;20.75;;
39140;SDS011;24875;48.436;10.298;2022-08-19T12:31:27;49.60;;;21.70;;
39140;SDS011;24875;48.436;10.298;2022-08-19T12:33:54;43.08;;;20.00;;
39140;SDS011;24875;48.436;10.298;2022-08-19T12:36:21;44.20;;;18.67;;
39140;SDS011;24875;48.436;10.298;2022-08-19T12:38:48;47.55;;;20.02;;
39140;SDS011;24875;48.436;10.298;2022-08-19T12:41:16;48.83;;;19.98;;
39140;SDS011;24875;48.436;10.298;2022-08-19T12:43:43;42.20;;;18.98;;
39140;SDS011;24875;48.436;10.298;2022-08-19T12:46:10;40.67;;;18.98;;
39140;SDS011;24875;48.436;10.298;2022-08-19T12:48:38;44.63;;;19.60;;
39140;SDS011;24875;48.436;10.298;2022-08-19T12:51:07;38.30;;;17.83;;
39140;SDS011;24875;48.436;10.298;2022-08-19T12:53:35;44.30;;;18.98;;
39140;SDS011;24875;48.436;10.298;2022-08-19T12:56:02;38.72;;;17.20;;
39140;SDS011;24875;48.436;10.298;2022-08-19T12:58:31;45.15;;;19.63;;
39140;SDS011;24875;48.436;10.298;2022-08-19T13:00:59;36.78;;;17.67;;
39140;SDS011;24875;48.436;10.298;2022-08-19T13:03:26;42.30;;;17.92;;
39140;SDS011;24875;48.436;10.298;2022-08-19T13:05:54;40.13;;;17.15;;
39140;SDS011;24875;48.436;10.298;2022-08-19T13:08:21;37.42;;;17.67;;
39140;SDS011;24875;48.436;10.298;2022-08-19T13:10:48;42.90;;;18.25;;
39140;SDS011;24875;48.436;10.298;2022-08-19T13:13:14;42.85;;;19.67;;
39140;SDS011;24875;48.436;10.298;2022-08-19T15:00:54;12.32;;;6.50;;
39140;SDS011;24875;48.436;10.298;2022-08-19T15:03:21;16.30;;;7.72;;
39140;SDS011;24875;48.436;10.298;2022-08-19T15:05:48;12.77;;;7.25;;
39140;SDS011;24875;48.436;10.298;2022-08-19T15:08:15;11.63;;;6.80;;
39140;SDS011;24875;48.436;10.298;2022-08-19T15:10:41;18.33;;;8.55;;
39140;SDS011;24875;48.436;10.298;2022-08-19T15:13:08;13.32;;;7.78;;
39140;SDS011;24875;48.436;10.298;2022-08-19T15:15:35;13.40;;;8.05;;
39140;SDS011;24875;48.436;10.298;2022-08-19T15:18:06;16.92;;;8.13;;
39140;SDS011;24875;48.436;10.298;2022-08-19T15:20:34;16.38;;;7.90;;
39140;SDS011;24875;48.436;10.298;2022-08-19T15:23:00;16.02;;;8.55;;
39140;SDS011;24875;48.436;10.298;2022-08-19T15:25:27;14.18;;;9.13;;
39140;SDS011;24875;48.436;10.298;2022-08-19T15:27:54;15.73;;;8.60;;
39140;SDS011;24875;48.436;10.298;2022-08-19T15:30:21;17.48;;;9.35;;
39140;SDS011;24875;48.436;10.298;2022-08-19T15:32:49;14.93;;;8.40;;
39140;SDS011;24875;48.436;10.298;2022-08-19T15:35:21;14.32;;;8.40;;
39140;SDS011;24875;48.436;10.298;2022-08-19T15:37:49;13.80;;;8.27;;
39140;SDS011;24875;48.436;10.298;2022-08-19T15:40:16;14.05;;;8.13;;
39140;SDS011;24875;48.436;10.298;2022-08-19T15:42:43;14.45;;;7.65;;
39140;SDS011;24875;48.436;10.298;2022-08-19T15:45:10;13.02;;;7.78;;
39140;SDS011;24875;48.436;10.298;2022-08-19T15:47:38;15.20;;;8.73;;
39140;SDS011;24875;48.436;10.298;2022-08-19T15:50:06;15.88;;;7.35;;
39140;SDS011;24875;48.436;10.298;2022-08-19T15:52:35;14.00;;;7.55;;
39140;SDS011;24875;48.436;10.298;2022-08-19T15:55:04;13.88;;;8.25;;
39140;SDS011;24875;48.436;10.298;2022-08-19T15:57:31;14.90;;;7.93;;
39140;SDS011;24875;48.436;10.298;2022-08-19T16:00:16;15.85;;;8.73;;
39140;SDS011;24875;48.436;10.298;2022-08-19T16:03:00;16.23;;;8.60;;